createdAt,value
2023-01-11T00:00:00.441Z,99198.57
2023-01-11T00:05:02.141Z,99197.85
2023-01-11T00:10:04.929Z,99198.98
2023-01-11T00:15:16.267Z,99195.55
2023-01-11T00:20:19.448Z,99198.66
2023-01-11T00:25:21.124Z,99195.05
2023-01-11T00:30:23.476Z,99194.59
2023-01-11T00:35:26.590Z,99194.58
2023-01-11T00:40:28.406Z,99194.46
2023-01-11T00:45:48.902Z,99195.75
2023-01-11T00:50:53.916Z,99199.58
2023-01-11T00:55:55.676Z,99197.05
2023-01-11T01:00:57.454Z,99196.89
2023-01-11T01:05:59.078Z,99200.79
2023-01-11T01:11:00.811Z,99202.36
2023-01-11T01:16:02.467Z,99207.98
2023-01-11T01:21:04.187Z,99202.33
2023-01-11T01:26:06.830Z,99204.25
2023-01-11T01:31:08.599Z,99205.45
2023-01-11T01:36:10.702Z,99209.00
2023-01-11T01:41:13.758Z,99207.71
2023-01-11T01:46:16.566Z,99203.27
2023-01-11T01:51:25.138Z,99199.48
2023-01-11T01:56:33.676Z,99194.91
2023-01-11T02:01:47.686Z,99192.84
2023-01-11T02:06:53.076Z,99185.32
2023-01-11T02:11:57.387Z,99183.80
2023-01-11T02:16:59.061Z,99182.41
2023-01-11T02:22:24.691Z,99178.63
2023-01-11T02:27:48.294Z,99167.07
2023-01-11T02:33:01.639Z,99171.16
2023-01-11T02:38:10.329Z,99164.54
2023-01-11T02:43:42.704Z,99165.85
2023-01-11T02:48:57.778Z,99174.34
2023-01-11T02:54:06.602Z,99178.02
2023-01-11T02:59:17.068Z,99180.27
2023-01-11T03:04:32.053Z,99179.28
2023-01-11T03:09:59.673Z,99170.16
2023-01-11T03:15:29.058Z,99170.98
2023-01-11T03:20:38.440Z,99162.73
2023-01-11T03:26:14.012Z,99163.27
2023-01-11T03:31:39.140Z,99163.14
2023-01-11T03:36:52.305Z,99167.73
2023-01-11T03:41:58.210Z,99163.09
2023-01-11T03:47:06.837Z,99157.44
2023-01-11T03:52:12.643Z,99156.26
2023-01-11T03:57:24.676Z,99153.55
2023-01-11T04:02:33.400Z,99155.85
2023-01-11T04:07:35.510Z,99152.34
2023-01-11T04:12:37.619Z,99155.01
2023-01-11T04:17:39.359Z,99147.73
2023-01-11T04:22:41.058Z,99144.60
2023-01-11T04:27:42.780Z,99148.95
2023-01-11T04:32:44.396Z,99145.81
2023-01-11T04:37:46.063Z,99136.98
2023-01-11T04:42:47.775Z,99131.25
2023-01-11T04:47:57.373Z,99129.05
2023-01-11T04:52:59.525Z,99124.60
2023-01-11T04:58:01.325Z,99123.54
2023-01-11T05:03:03.108Z,99118.80
2023-01-11T05:08:05.009Z,99116.27
2023-01-11T05:13:06.706Z,99111.38
2023-01-11T05:18:08.367Z,99109.96
2023-01-11T05:23:10.156Z,99104.02
2023-01-11T05:28:11.865Z,99093.64
2023-01-11T05:33:13.593Z,99094.80
2023-01-11T05:38:15.476Z,99090.34
2023-01-11T05:43:17.156Z,99084.75
2023-01-11T05:48:19.219Z,99090.58
2023-01-11T05:53:22.931Z,99094.73
2023-01-11T05:58:26.822Z,99098.66
2023-01-11T06:03:28.585Z,99088.28
2023-01-11T06:08:30.329Z,99080.34
2023-01-11T06:13:33.774Z,99079.63
2023-01-11T06:18:39.140Z,99080.77
2023-01-11T06:23:44.267Z,99083.14
2023-01-11T06:28:46.494Z,99079.54
2023-01-11T06:33:48.197Z,99072.48
2023-01-11T06:38:49.838Z,99080.13
2023-01-11T06:43:51.615Z,99069.55
2023-01-11T06:48:53.360Z,99077.76
2023-01-11T06:53:55.055Z,99080.10
2023-01-11T06:58:56.699Z,99077.39
2023-01-11T07:03:58.486Z,99077.84
2023-01-11T07:09:00.310Z,99088.11
2023-01-11T07:14:01.999Z,99090.45
2023-01-11T07:19:03.683Z,99079.03
2023-01-11T07:24:05.692Z,99071.71
2023-01-11T07:29:10.842Z,99061.13
2023-01-11T07:34:12.619Z,99052.10
2023-01-11T07:39:14.291Z,99050.75
2023-01-11T07:44:16.244Z,99055.71
2023-01-11T07:49:17.960Z,99050.30
2023-01-11T07:54:19.996Z,99044.98
2023-01-11T07:59:21.653Z,99043.58
2023-01-11T08:09:42.766Z,99034.89
2023-01-11T08:14:44.558Z,99034.39
2023-01-11T08:19:46.307Z,99032.55
2023-01-11T08:24:48.100Z,99030.52
2023-01-11T08:29:49.956Z,99025.04
2023-01-11T08:34:51.808Z,99024.06
2023-01-11T08:39:55.957Z,99030.91
2023-01-11T08:44:57.711Z,99047.99
2023-01-11T08:49:59.544Z,99049.50
2023-01-11T08:55:01.283Z,99051.04
2023-01-11T09:00:07.570Z,99054.84
2023-01-11T09:05:09.559Z,99056.17
2023-01-11T09:10:11.439Z,99059.16
2023-01-11T09:15:13.117Z,99064.54
2023-01-11T09:20:15.153Z,99054.63
2023-01-11T09:25:17.232Z,99047.89
2023-01-11T09:30:21.748Z,99048.90
2023-01-11T09:35:23.413Z,99041.47
2023-01-11T09:41:04.823Z,99028.87
2023-01-11T09:46:09.234Z,99015.73
2023-01-11T09:51:15.951Z,99006.02
2023-01-11T09:56:25.535Z,98999.59
2023-01-11T10:01:49.551Z,98990.52
2023-01-11T10:07:15.535Z,98979.05
2023-01-11T10:18:43.435Z,98979.45
2023-01-11T10:23:55.480Z,98974.90
2023-01-11T10:29:16.473Z,98956.63
2023-01-11T10:34:39.185Z,98950.33
2023-01-11T10:40:23.838Z,98949.27
2023-01-11T10:45:40.580Z,98944.95
2023-01-11T10:51:05.042Z,98940.88
2023-01-11T10:56:15.445Z,98934.56
2023-01-11T11:01:51.515Z,98930.05
2023-01-11T11:07:24.182Z,98925.41
2023-01-11T11:12:31.000Z,98925.10
2023-01-11T11:17:36.625Z,98918.67
2023-01-11T11:22:38.256Z,98909.92
2023-01-11T11:27:41.502Z,98905.73
2023-01-11T11:33:10.896Z,98897.23
2023-01-11T11:38:34.052Z,98886.76
2023-01-11T11:43:38.064Z,98870.22
2023-01-11T11:48:41.466Z,98855.96
2023-01-11T11:53:51.683Z,98839.94
2023-01-11T11:58:54.629Z,98839.44
2023-01-11T12:04:01.196Z,98840.10
2023-01-11T12:09:03.634Z,98826.52
2023-01-11T12:14:11.280Z,98814.98
2023-01-11T12:19:43.883Z,98816.79
2023-01-11T12:24:47.643Z,98819.77
2023-01-11T12:30:14.196Z,98813.70
2023-01-11T12:35:40.746Z,98802.23
2023-01-11T12:40:51.052Z,98799.27
2023-01-11T12:46:22.835Z,98793.07
2023-01-11T12:51:43.219Z,98780.92
2023-01-11T12:57:13.099Z,98775.31
2023-01-11T13:02:39.508Z,98761.50
2023-01-11T13:07:59.370Z,98759.19
2023-01-11T13:13:17.456Z,98750.73
2023-01-11T13:18:29.689Z,98740.90
2023-01-11T13:23:50.772Z,98735.38
2023-01-11T13:29:02.927Z,98732.86
2023-01-11T13:34:12.705Z,98725.10
2023-01-11T13:39:28.509Z,98719.14
2023-01-11T13:44:42.546Z,98717.63
2023-01-11T13:49:44.349Z,98714.90
2023-01-11T13:54:58.945Z,98718.44
2023-01-11T14:00:18.597Z,98721.67
2023-01-11T14:05:22.489Z,98724.81
2023-01-11T14:10:54.588Z,98719.84
2023-01-11T14:16:04.789Z,98720.77
2023-01-11T14:21:28.540Z,98725.50
2023-01-11T14:26:49.208Z,98725.20
2023-01-11T14:32:39.417Z,98722.15
2023-01-11T14:38:05.708Z,98724.67
2023-01-11T14:43:33.710Z,98730.19
2023-01-11T14:48:44.803Z,98724.45
2023-01-11T14:54:10.610Z,98721.73
2023-01-11T14:59:25.965Z,98715.53
2023-01-11T15:04:27.820Z,98714.80
2023-01-11T15:09:48.350Z,98707.35
2023-01-11T15:14:55.394Z,98703.04
2023-01-11T15:20:07.403Z,98688.43
2023-01-11T15:25:31.798Z,98682.27
2023-01-11T15:30:38.032Z,98680.05
2023-01-11T15:35:39.758Z,98674.41
2023-01-11T15:40:46.527Z,98676.60
2023-01-11T15:46:27.858Z,98681.95
2023-01-11T15:51:55.407Z,98683.83
2023-01-11T15:57:12.257Z,98681.96
2023-01-11T16:02:13.928Z,98680.17
2023-01-11T16:07:40.432Z,98672.46
2023-01-11T16:13:04.536Z,98664.30
2023-01-11T16:18:16.807Z,98664.95
2023-01-11T16:23:20.904Z,98665.48
2023-01-11T16:28:23.213Z,98665.17
2023-01-11T16:33:30.154Z,98658.27
2023-01-11T16:38:40.758Z,98663.55
2023-01-11T16:44:04.535Z,98663.73
2023-01-11T16:49:10.614Z,98659.97
2023-01-11T16:54:19.978Z,98660.92
2023-01-11T16:59:26.767Z,98665.63
2023-01-11T17:04:34.544Z,98669.63
2023-01-11T17:09:36.205Z,98668.34
2023-01-11T17:14:45.619Z,98675.73
2023-01-11T17:19:49.753Z,98681.02
2023-01-11T17:24:56.343Z,98680.23
2023-01-11T17:29:59.077Z,98675.84
2023-01-11T17:35:03.840Z,98675.89
2023-01-11T17:40:17.820Z,98676.38
2023-01-11T17:45:24.894Z,98673.38
2023-01-11T17:50:39.525Z,98668.55
2023-01-11T17:55:54.000Z,98667.52
2023-01-11T18:01:05.141Z,98668.56
2023-01-11T18:06:23.264Z,98669.10
2023-01-11T18:11:28.285Z,98665.27
2023-01-11T18:16:30.078Z,98665.39
2023-01-11T18:21:52.842Z,98664.59
2023-01-11T18:27:17.963Z,98661.60
2023-01-11T18:32:20.912Z,98653.15
2023-01-11T18:37:23.579Z,98643.51
2023-01-11T18:42:30.210Z,98634.85
2023-01-11T18:47:31.945Z,98632.17
2023-01-11T18:52:33.945Z,98634.94
2023-01-11T18:57:35.794Z,98639.52
2023-01-11T19:02:43.342Z,98636.69
2023-01-11T19:07:45.108Z,98634.58
2023-01-11T19:12:47.399Z,98633.45
2023-01-11T19:17:49.193Z,98631.83
2023-01-11T19:22:51.103Z,98621.89
2023-01-11T19:27:54.855Z,98627.84
2023-01-11T19:32:56.810Z,98630.63
2023-01-11T19:37:58.462Z,98629.77
2023-01-11T19:43:00.184Z,98630.61
2023-01-11T19:48:01.857Z,98638.54
2023-01-11T19:53:03.753Z,98641.73
2023-01-11T19:58:08.070Z,98650.20
2023-01-11T20:03:09.965Z,98652.11
2023-01-11T20:08:11.842Z,98660.70
2023-01-11T20:13:13.637Z,98679.93
2023-01-11T20:18:15.351Z,98691.17
2023-01-11T20:23:17.047Z,98701.95
2023-01-11T20:28:20.626Z,98705.55
2023-01-11T20:33:22.539Z,98708.41
2023-01-11T20:38:24.220Z,98707.98
2023-01-11T20:43:26.087Z,98701.38
2023-01-11T20:48:28.042Z,98694.15
2023-01-11T20:53:30.051Z,98692.90
2023-01-11T20:58:31.819Z,98699.64
2023-01-11T21:03:33.508Z,98714.07
2023-01-11T21:08:36.195Z,98714.48
2023-01-11T21:13:38.433Z,98715.71
2023-01-11T21:18:44.016Z,98715.97
2023-01-11T21:23:47.526Z,98717.17
2023-01-11T21:28:55.794Z,98727.38
2023-01-11T21:33:58.285Z,98727.73
2023-01-11T21:39:00.614Z,98723.30
2023-01-11T21:44:02.340Z,98724.66
2023-01-11T21:49:04.120Z,98728.66
2023-01-11T21:54:09.815Z,98740.83
2023-01-11T21:59:12.567Z,98739.50
2023-01-11T22:04:16.242Z,98739.05
2023-01-11T22:09:20.337Z,98735.88
2023-01-11T22:14:24.171Z,98736.16
2023-01-11T22:19:26.084Z,98738.55
2023-01-11T22:24:27.834Z,98743.86
2023-01-11T22:29:29.873Z,98752.30
2023-01-11T22:34:39.235Z,98753.09
2023-01-11T22:39:41.043Z,98754.04
2023-01-11T22:44:42.713Z,98765.18
2023-01-11T22:49:44.395Z,98771.20
2023-01-11T22:54:46.050Z,98775.40
2023-01-11T22:59:47.657Z,98775.86
2023-01-11T23:04:49.297Z,98778.63
2023-01-11T23:09:50.966Z,98782.60
2023-01-11T23:14:54.254Z,98786.92
2023-01-11T23:19:55.944Z,98785.58
2023-01-11T23:24:57.679Z,98788.19
2023-01-11T23:29:59.784Z,98790.38
2023-01-11T23:35:01.609Z,98788.41
2023-01-11T23:40:03.506Z,98790.05
2023-01-11T23:45:08.604Z,98790.39
2023-01-11T23:50:10.442Z,98798.17
2023-01-11T23:55:13.908Z,98800.50
